createdAt,value
2022-11-19T00:01:18.549Z,76.71
2022-11-19T00:03:49.896Z,76.48
2022-11-19T00:06:20.913Z,76.31
2022-11-19T00:08:47.427Z,76.62
2022-11-19T00:11:16.224Z,76.16
2022-11-19T00:13:43.215Z,75.94
2022-11-19T00:16:13.997Z,75.86
2022-11-19T00:18:41.077Z,75.87
2022-11-19T00:21:10.062Z,75.81
2022-11-19T00:23:36.851Z,76.30
2022-11-19T00:26:14.424Z,76.20
2022-11-19T00:28:41.768Z,76.42
2022-11-19T00:31:11.846Z,76.03
2022-11-19T00:33:39.563Z,75.86
2022-11-19T00:36:08.124Z,75.75
2022-11-19T00:38:34.712Z,76.12
2022-11-19T00:41:01.255Z,76.02
2022-11-19T00:43:46.392Z,75.82
2022-11-19T00:46:30.273Z,75.41
2022-11-19T00:48:59.114Z,75.71
2022-11-19T00:51:28.424Z,75.37
2022-11-19T00:53:55.036Z,75.09
2022-11-19T00:56:23.345Z,75.12
2022-11-19T00:58:50.271Z,75.38
2022-11-19T01:01:18.140Z,75.03
2022-11-19T01:03:48.055Z,75.18
2022-11-19T01:06:19.125Z,74.91
2022-11-19T01:08:47.143Z,75.28
2022-11-19T01:11:17.042Z,75.45
2022-11-19T01:13:43.728Z,75.51
2022-11-19T01:16:31.376Z,75.47
2022-11-19T01:18:58.265Z,75.68
2022-11-19T01:21:27.007Z,75.79
2022-11-19T01:23:53.519Z,75.86
2022-11-19T01:26:20.288Z,76.12
2022-11-19T01:28:47.184Z,76.42
2022-11-19T01:31:16.492Z,76.24
2022-11-19T01:33:43.339Z,76.71
2022-11-19T01:36:15.983Z,76.62
2022-11-19T01:38:42.513Z,75.87
2022-11-19T01:41:09.499Z,76.66
2022-11-19T01:43:48.353Z,77.27
2022-11-19T01:46:16.895Z,77.65
2022-11-19T01:48:47.065Z,77.19
2022-11-19T01:51:33.218Z,76.82
2022-11-19T01:54:06.215Z,76.86
2022-11-19T01:56:32.623Z,76.72
2022-11-19T01:59:03.395Z,76.54
2022-11-19T02:01:31.408Z,76.28
2022-11-19T02:04:02.418Z,76.38
2022-11-19T02:06:29.695Z,76.20
2022-11-19T02:08:56.718Z,77.11
2022-11-19T02:11:29.234Z,77.44
2022-11-19T02:14:17.344Z,76.97
2022-11-19T02:16:55.318Z,76.47
2022-11-19T02:20:00.144Z,76.14
2022-11-19T02:22:45.239Z,76.29
2022-11-19T02:25:23.820Z,76.78
2022-11-19T02:28:02.323Z,77.01
2022-11-19T02:30:36.814Z,77.04
2022-11-19T02:33:10.605Z,77.18
2022-11-19T02:35:59.935Z,76.82
2022-11-19T02:38:48.208Z,76.84
2022-11-19T02:41:37.911Z,76.36
2022-11-19T02:44:31.960Z,76.03
2022-11-19T02:46:59.493Z,76.83
2022-11-19T02:49:27.770Z,76.31
2022-11-19T02:51:54.380Z,76.57
2022-11-19T02:54:21.144Z,76.87
2022-11-19T02:56:51.555Z,77.17
2022-11-19T02:59:50.683Z,77.73
2022-11-19T03:02:37.129Z,78.72
2022-11-19T03:05:07.554Z,78.88
2022-11-19T03:07:35.470Z,78.87
2022-11-19T03:10:05.513Z,79.25
2022-11-19T03:12:54.204Z,79.50
2022-11-19T03:15:52.839Z,79.60
2022-11-19T03:18:23.404Z,79.91
2022-11-19T03:20:56.444Z,79.68
2022-11-19T03:23:27.469Z,79.71
2022-11-19T03:25:56.938Z,79.82
2022-11-19T03:28:26.940Z,79.90
2022-11-19T03:30:55.557Z,79.57
2022-11-19T03:33:25.730Z,79.55
2022-11-19T03:35:55.131Z,79.45
2022-11-19T03:38:28.786Z,79.32
2022-11-19T03:40:55.780Z,79.42
2022-11-19T03:43:25.969Z,79.25
2022-11-19T03:45:52.953Z,78.53
2022-11-19T03:48:21.128Z,78.26
2022-11-19T03:50:50.786Z,77.57
2022-11-19T03:53:17.488Z,77.04
2022-11-19T03:55:47.385Z,76.60
2022-11-19T03:58:13.891Z,76.70
2022-11-19T04:00:40.303Z,76.35
2022-11-19T04:03:06.709Z,77.07
2022-11-19T04:05:33.173Z,77.33
2022-11-19T04:07:59.566Z,77.70
2022-11-19T04:10:25.964Z,77.84
2022-11-19T04:12:52.401Z,78.16
2022-11-19T04:15:18.880Z,77.86
2022-11-19T04:17:45.300Z,78.25
2022-11-19T04:20:11.824Z,78.21
2022-11-19T04:22:38.264Z,77.91
2022-11-19T04:25:05.104Z,77.79
2022-11-19T04:27:31.657Z,77.63
2022-11-19T04:29:58.074Z,77.50
2022-11-19T04:32:24.531Z,77.68
2022-11-19T04:34:50.945Z,77.61
2022-11-19T04:37:17.356Z,77.12
2022-11-19T04:39:43.755Z,77.16
2022-11-19T04:42:10.176Z,76.70
2022-11-19T04:44:36.706Z,76.72
2022-11-19T04:47:03.129Z,77.42
2022-11-19T04:49:29.586Z,77.06
2022-11-19T04:51:55.996Z,77.28
2022-11-19T04:54:22.415Z,76.92
2022-11-19T04:56:48.805Z,76.92
2022-11-19T04:59:15.327Z,76.74
2022-11-19T05:01:41.808Z,76.55
2022-11-19T05:04:09.681Z,75.80
2022-11-19T05:06:36.090Z,76.31
2022-11-19T05:09:02.528Z,76.06
2022-11-19T05:11:28.951Z,75.65
2022-11-19T05:13:55.401Z,75.70
2022-11-19T05:16:21.804Z,75.77
2022-11-19T05:18:48.318Z,76.21
2022-11-19T05:21:14.730Z,76.27
2022-11-19T05:23:41.142Z,76.59
2022-11-19T05:26:07.547Z,76.65
2022-11-19T05:28:38.962Z,76.58
2022-11-19T05:31:06.956Z,76.50
2022-11-19T05:33:34.426Z,76.03
2022-11-19T05:36:01.864Z,76.11
2022-11-19T05:38:28.276Z,75.72
2022-11-19T05:40:54.737Z,76.12
2022-11-19T05:43:21.120Z,75.85
2022-11-19T05:45:47.528Z,75.03
2022-11-19T05:48:13.996Z,75.14
2022-11-19T05:50:43.617Z,75.30
2022-11-19T05:53:10.144Z,75.78
2022-11-19T05:55:36.667Z,76.33
2022-11-19T05:58:03.246Z,76.71
2022-11-19T06:00:29.717Z,77.46
2022-11-19T06:02:56.346Z,77.27
2022-11-19T06:05:22.825Z,76.97
2022-11-19T06:07:49.277Z,76.69
2022-11-19T06:10:15.730Z,77.00
2022-11-19T06:12:45.816Z,76.59
2022-11-19T06:15:12.787Z,76.63
2022-11-19T06:17:39.198Z,76.45
2022-11-19T06:20:08.695Z,76.74
2022-11-19T06:22:36.291Z,76.93
2022-11-19T06:25:04.508Z,76.69
2022-11-19T06:27:31.057Z,76.27
2022-11-19T06:29:57.535Z,76.52
2022-11-19T06:32:24.095Z,76.67
2022-11-19T06:34:50.538Z,76.51
2022-11-19T06:37:16.931Z,76.89
2022-11-19T06:39:43.344Z,77.19
2022-11-19T06:42:28.373Z,77.64
2022-11-19T06:44:54.834Z,77.73
2022-11-19T06:47:21.244Z,78.10
2022-11-19T06:49:48.657Z,78.22
2022-11-19T06:52:15.120Z,77.69
2022-11-19T06:54:43.265Z,77.72
2022-11-19T06:57:10.137Z,77.02
2022-11-19T06:59:38.815Z,76.90
2022-11-19T07:02:05.712Z,76.92
2022-11-19T07:04:32.251Z,76.47
2022-11-19T07:06:58.760Z,76.51
2022-11-19T07:09:25.214Z,76.24
2022-11-19T07:11:51.609Z,76.20
2022-11-19T07:14:18.042Z,76.20
2022-11-19T07:16:44.453Z,76.29
2022-11-19T07:19:10.876Z,76.54
2022-11-19T07:21:37.367Z,76.29
2022-11-19T07:24:06.476Z,76.11
2022-11-19T07:26:34.061Z,76.22
2022-11-19T07:29:05.554Z,76.26
2022-11-19T07:31:33.065Z,76.43
2022-11-19T07:33:59.780Z,76.57
2022-11-19T07:36:26.234Z,76.71
2022-11-19T07:38:52.671Z,76.86
2022-11-19T07:41:38.246Z,77.58
2022-11-19T07:44:04.861Z,77.63
2022-11-19T07:46:31.279Z,77.23
2022-11-19T07:48:58.458Z,77.38
2022-11-19T07:51:25.449Z,77.53
2022-11-19T07:53:51.937Z,77.53
2022-11-19T07:56:18.497Z,77.58
2022-11-19T07:58:44.931Z,78.11
2022-11-19T08:01:20.254Z,78.58
2022-11-19T08:03:53.284Z,78.94
2022-11-19T08:06:22.894Z,79.28
2022-11-19T08:08:49.313Z,79.54
2022-11-19T08:11:17.293Z,79.73
2022-11-19T08:13:43.785Z,79.72
2022-11-19T08:16:35.561Z,79.63
2022-11-19T08:19:13.931Z,80.44
2022-11-19T08:21:43.066Z,80.60
2022-11-19T08:24:10.272Z,81.06
2022-11-19T08:26:37.609Z,81.30
2022-11-19T08:29:04.787Z,81.27
2022-11-19T08:31:31.208Z,81.50
2022-11-19T08:33:57.634Z,81.65
2022-11-19T08:36:24.096Z,82.04
2022-11-19T08:38:50.499Z,81.96
2022-11-19T08:41:35.599Z,81.57
2022-11-19T08:44:02.649Z,80.92
2022-11-19T08:46:29.149Z,80.80
2022-11-19T08:48:55.646Z,81.01
2022-11-19T08:51:22.059Z,80.74
2022-11-19T08:53:48.480Z,80.80
2022-11-19T08:56:18.046Z,80.78
2022-11-19T08:58:45.045Z,80.98
2022-11-19T09:01:12.808Z,81.32
2022-11-19T09:03:39.675Z,81.17
2022-11-19T09:06:06.868Z,81.10
2022-11-19T09:08:33.643Z,81.57
2022-11-19T09:11:00.622Z,81.55
2022-11-19T09:13:27.107Z,81.46
2022-11-19T09:15:53.653Z,80.61
2022-11-19T09:18:20.099Z,80.22
2022-11-19T09:20:46.560Z,79.70
2022-11-19T09:23:13.003Z,79.31
2022-11-19T09:25:39.451Z,79.13
2022-11-19T09:28:05.845Z,79.22
2022-11-19T09:30:32.240Z,79.02
2022-11-19T09:32:59.976Z,78.55
2022-11-19T09:35:26.394Z,78.45
2022-11-19T09:37:52.834Z,77.74
2022-11-19T09:40:20.764Z,77.65
2022-11-19T09:43:13.940Z,77.03
2022-11-19T09:45:58.863Z,77.01
2022-11-19T09:48:34.211Z,77.02
2022-11-19T09:51:08.361Z,77.78
2022-11-19T09:53:52.601Z,77.83
2022-11-19T09:56:26.832Z,77.21
2022-11-19T09:58:54.671Z,77.46
2022-11-19T10:01:21.470Z,76.93
2022-11-19T10:03:53.617Z,77.59
2022-11-19T10:06:26.526Z,77.41
2022-11-19T10:09:03.918Z,75.87
2022-11-19T10:11:52.629Z,75.22
2022-11-19T10:14:49.471Z,76.10
2022-11-19T10:17:33.337Z,75.92
2022-11-19T10:20:14.972Z,74.95
2022-11-19T10:23:08.731Z,75.37
2022-11-19T10:25:44.878Z,75.68
2022-11-19T10:28:15.108Z,75.48
2022-11-19T10:30:49.852Z,75.20
2022-11-19T10:33:36.418Z,73.98
2022-11-19T10:36:08.148Z,73.47
2022-11-19T10:38:41.559Z,73.99
2022-11-19T10:41:36.093Z,73.32
2022-11-19T10:44:40.138Z,72.88
2022-11-19T10:47:16.584Z,72.14
2022-11-19T10:49:43.588Z,72.42
2022-11-19T10:52:37.940Z,72.45
2022-11-19T10:55:25.734Z,72.28
2022-11-19T10:58:01.188Z,72.80
2022-11-19T11:00:27.585Z,73.17
2022-11-19T11:02:58.954Z,73.44
2022-11-19T11:05:25.445Z,74.15
2022-11-19T11:07:54.575Z,74.32
2022-11-19T11:10:42.630Z,74.15
2022-11-19T11:13:43.017Z,72.85
2022-11-19T11:16:17.005Z,71.41
2022-11-19T11:18:43.976Z,70.77
2022-11-19T11:21:24.719Z,71.00
2022-11-19T11:23:53.374Z,71.89
2022-11-19T11:26:25.200Z,71.81
2022-11-19T11:29:00.999Z,71.65
2022-11-19T11:31:41.990Z,71.46
2022-11-19T11:34:38.422Z,71.32
2022-11-19T11:37:06.105Z,71.94
2022-11-19T11:39:37.898Z,72.37
2022-11-19T11:42:06.576Z,72.99
2022-11-19T11:44:35.874Z,72.46
2022-11-19T11:47:12.767Z,72.55
2022-11-19T11:49:41.227Z,72.66
2022-11-19T11:52:28.498Z,72.38
2022-11-19T11:54:57.333Z,72.48
2022-11-19T11:57:37.773Z,72.73
2022-11-19T12:00:27.198Z,72.44
2022-11-19T12:03:06.615Z,71.77
2022-11-19T12:06:04.037Z,70.53
2022-11-19T12:09:09.548Z,70.41
2022-11-19T12:11:55.045Z,69.77
2022-11-19T12:14:36.538Z,69.37
2022-11-19T12:17:51.055Z,69.61
2022-11-19T12:20:22.498Z,69.84
2022-11-19T12:23:02.216Z,70.02
2022-11-19T12:25:40.527Z,67.66
2022-11-19T12:28:41.038Z,65.14
2022-11-19T12:31:32.334Z,66.11
2022-11-19T12:34:28.615Z,65.30
2022-11-19T12:36:57.840Z,65.14
2022-11-19T12:39:45.627Z,66.12
2022-11-19T12:42:38.439Z,65.61
2022-11-19T12:45:30.528Z,66.01
2022-11-19T12:48:44.896Z,65.14
2022-11-19T12:51:21.524Z,65.59
2022-11-19T12:53:59.678Z,65.62
2022-11-19T12:56:35.694Z,65.09
2022-11-19T12:59:28.542Z,65.01
2022-11-19T13:01:55.430Z,65.28
2022-11-19T13:04:27.805Z,64.72
2022-11-19T13:07:00.667Z,64.85
2022-11-19T13:09:40.921Z,65.23
2022-11-19T13:12:10.004Z,63.41
2022-11-19T13:14:41.481Z,63.34
2022-11-19T13:17:17.724Z,62.62
2022-11-19T13:19:46.693Z,63.18
2022-11-19T13:22:18.929Z,62.24
2022-11-19T13:25:07.488Z,62.37
2022-11-19T13:27:34.408Z,62.02
2022-11-19T13:30:04.048Z,62.94
2022-11-19T13:32:39.362Z,61.59
2022-11-19T13:35:13.937Z,62.17
2022-11-19T13:37:58.835Z,62.58
2022-11-19T13:40:35.836Z,63.53
2022-11-19T13:43:36.719Z,63.84
2022-11-19T13:46:47.524Z,64.87
2022-11-19T13:49:26.417Z,64.94
2022-11-19T13:52:03.812Z,64.71
2022-11-19T13:54:35.695Z,64.58
2022-11-19T13:57:03.196Z,64.69
2022-11-19T13:59:46.593Z,64.73
2022-11-19T14:02:46.951Z,65.75
2022-11-19T14:05:49.897Z,65.99
2022-11-19T14:08:38.015Z,65.91
2022-11-19T14:11:22.618Z,65.92
2022-11-19T14:14:01.879Z,65.96
2022-11-19T14:17:08.645Z,66.28
2022-11-19T14:20:11.424Z,66.25
2022-11-19T14:23:01.116Z,65.89
2022-11-19T14:26:00.332Z,66.25
2022-11-19T14:28:50.574Z,65.91
2022-11-19T14:31:18.918Z,65.38
2022-11-19T14:33:48.291Z,65.20
2022-11-19T14:36:22.334Z,64.88
2022-11-19T14:38:56.423Z,64.83
2022-11-19T14:41:27.936Z,65.05
2022-11-19T14:44:10.900Z,65.37
2022-11-19T14:46:39.688Z,65.49
2022-11-19T14:49:16.918Z,65.93
2022-11-19T14:51:43.426Z,66.18
2022-11-19T14:54:15.935Z,66.53
2022-11-19T14:56:45.891Z,66.95
2022-11-19T14:59:15.283Z,67.39
2022-11-19T15:01:52.693Z,68.04
2022-11-19T15:04:20.930Z,68.14
2022-11-19T15:06:47.571Z,68.58
2022-11-19T15:09:14.152Z,69.14
2022-11-19T15:11:55.785Z,69.06
2022-11-19T15:14:28.193Z,69.29
2022-11-19T15:16:56.017Z,69.52
2022-11-19T15:19:42.690Z,69.73
2022-11-19T15:22:23.649Z,70.00
2022-11-19T15:24:53.043Z,70.94
2022-11-19T15:27:39.052Z,71.44
2022-11-19T15:30:07.410Z,71.45
2022-11-19T15:32:49.696Z,71.96
2022-11-19T15:35:25.268Z,72.39
2022-11-19T15:38:03.254Z,72.18
2022-11-19T15:40:33.028Z,72.64
2022-11-19T15:43:21.199Z,72.64
2022-11-19T15:46:10.336Z,72.67
2022-11-19T15:48:51.412Z,73.23
2022-11-19T15:51:17.951Z,73.28
2022-11-19T15:54:03.741Z,73.68
2022-11-19T15:56:37.943Z,74.00
2022-11-19T15:59:07.000Z,74.09
2022-11-19T16:01:34.384Z,74.70
2022-11-19T16:04:06.364Z,74.27
2022-11-19T16:06:32.825Z,75.17
2022-11-19T16:09:01.101Z,75.56
2022-11-19T16:11:50.821Z,75.63
2022-11-19T16:14:41.847Z,75.99
2022-11-19T16:17:43.441Z,76.30
2022-11-19T16:20:24.953Z,76.14
2022-11-19T16:23:04.116Z,77.10
2022-11-19T16:25:31.744Z,77.02
2022-11-19T16:28:00.787Z,77.06
2022-11-19T16:30:29.663Z,77.15
2022-11-19T16:32:58.094Z,77.89
2022-11-19T16:35:27.359Z,77.35
2022-11-19T16:37:54.543Z,77.62
2022-11-19T16:40:21.653Z,77.71
2022-11-19T16:42:52.122Z,77.93
2022-11-19T16:45:21.992Z,78.54
2022-11-19T16:48:08.893Z,78.31
2022-11-19T16:50:37.552Z,78.60
2022-11-19T16:53:06.750Z,78.47
2022-11-19T16:55:36.057Z,78.53
2022-11-19T16:58:10.338Z,78.33
2022-11-19T17:00:37.381Z,78.48
2022-11-19T17:03:29.062Z,77.98
2022-11-19T17:05:56.403Z,78.15
2022-11-19T17:08:28.643Z,77.69
2022-11-19T17:11:40.163Z,78.19
2022-11-19T17:14:50.055Z,78.09
2022-11-19T17:17:39.931Z,77.76
2022-11-19T17:20:30.549Z,78.02
2022-11-19T17:22:57.099Z,77.90
2022-11-19T17:25:23.988Z,78.20
2022-11-19T17:27:56.391Z,77.74
2022-11-19T17:30:27.171Z,78.18
2022-11-19T17:32:57.184Z,78.15
2022-11-19T17:35:43.720Z,78.25
2022-11-19T17:38:23.731Z,78.06
2022-11-19T17:40:52.387Z,78.02
2022-11-19T17:43:53.588Z,78.05
2022-11-19T17:46:20.546Z,77.69
2022-11-19T17:48:48.216Z,77.71
2022-11-19T17:51:17.005Z,77.76
2022-11-19T17:53:43.424Z,77.80
2022-11-19T17:56:27.270Z,77.49
2022-11-19T17:58:54.737Z,77.93
2022-11-19T18:01:21.530Z,78.00
2022-11-19T18:03:48.325Z,77.86
2022-11-19T18:06:16.893Z,77.95
2022-11-19T18:08:43.777Z,77.66
2022-11-19T18:11:13.202Z,78.05
2022-11-19T18:13:40.569Z,77.97
2022-11-19T18:16:15.569Z,78.29
2022-11-19T18:18:42.068Z,78.00
2022-11-19T18:21:11.317Z,78.32
2022-11-19T18:23:38.247Z,78.17
2022-11-19T18:26:04.851Z,78.23
2022-11-19T18:28:31.251Z,78.30
2022-11-19T18:30:57.952Z,78.44
2022-11-19T18:33:24.360Z,78.47
2022-11-19T18:35:50.799Z,78.46
2022-11-19T18:38:17.224Z,78.27
2022-11-19T18:40:43.695Z,78.74
2022-11-19T18:43:28.689Z,78.85
2022-11-19T18:45:55.113Z,78.65
2022-11-19T18:48:21.518Z,78.55
2022-11-19T18:50:47.937Z,79.07
2022-11-19T18:53:14.338Z,78.94
2022-11-19T18:55:40.750Z,78.84
2022-11-19T18:58:07.181Z,79.14
2022-11-19T19:00:33.860Z,79.18
2022-11-19T19:03:00.672Z,79.28
2022-11-19T19:05:27.084Z,79.27
2022-11-19T19:07:53.786Z,78.86
2022-11-19T19:10:20.202Z,79.14
2022-11-19T19:12:46.587Z,78.94
2022-11-19T19:15:13.209Z,78.71
2022-11-19T19:17:39.655Z,78.85
2022-11-19T19:20:06.533Z,79.08
2022-11-19T19:22:32.929Z,78.91
2022-11-19T19:24:59.374Z,79.08
2022-11-19T19:27:25.947Z,78.76
2022-11-19T19:29:52.364Z,78.83
2022-11-19T19:32:18.809Z,78.87
2022-11-19T19:34:45.204Z,78.76
2022-11-19T19:37:11.670Z,78.38
2022-11-19T19:39:38.121Z,78.82
2022-11-19T19:42:04.572Z,78.92
2022-11-19T19:44:31.004Z,78.87
2022-11-19T19:46:57.432Z,78.71
2022-11-19T19:49:24.263Z,78.87
2022-11-19T19:51:50.956Z,79.17
2022-11-19T19:54:17.389Z,78.72
2022-11-19T19:56:43.811Z,78.90
2022-11-19T19:59:12.054Z,78.48
2022-11-19T20:01:38.555Z,78.60
2022-11-19T20:04:10.170Z,78.79
2022-11-19T20:06:41.450Z,78.66
2022-11-19T20:09:09.510Z,78.28
2022-11-19T20:11:36.449Z,78.87
2022-11-19T20:14:02.942Z,78.68
2022-11-19T20:16:31.247Z,78.59
2022-11-19T20:18:59.493Z,78.79
2022-11-19T20:21:28.459Z,78.39
2022-11-19T20:23:55.402Z,78.76
2022-11-19T20:26:24.070Z,78.88
2022-11-19T20:28:55.079Z,78.94
2022-11-19T20:31:21.515Z,78.38
2022-11-19T20:33:52.862Z,78.73
2022-11-19T20:36:19.320Z,78.29
2022-11-19T20:38:48.589Z,78.23
2022-11-19T20:41:34.752Z,78.52
2022-11-19T20:44:20.476Z,78.56
2022-11-19T20:46:48.255Z,78.58
2022-11-19T20:49:17.667Z,78.47
2022-11-19T20:51:44.622Z,78.42
2022-11-19T20:54:11.777Z,78.72
2022-11-19T20:56:39.085Z,78.56
2022-11-19T20:59:06.056Z,78.29
2022-11-19T21:01:33.310Z,78.50
2022-11-19T21:03:59.976Z,78.53
2022-11-19T21:06:26.453Z,78.34
2022-11-19T21:08:53.066Z,78.72
2022-11-19T21:11:19.683Z,78.31
2022-11-19T21:13:46.075Z,78.47
2022-11-19T21:16:14.064Z,78.64
2022-11-19T21:18:42.546Z,78.69
2022-11-19T21:21:10.662Z,78.81
2022-11-19T21:23:39.226Z,78.68
2022-11-19T21:26:16.704Z,78.72
2022-11-19T21:28:47.582Z,78.64
2022-11-19T21:31:15.313Z,78.56
2022-11-19T21:33:41.843Z,78.65
2022-11-19T21:36:08.552Z,78.54
2022-11-19T21:38:35.834Z,78.33
2022-11-19T21:41:02.401Z,78.30
2022-11-19T21:43:30.141Z,78.29
2022-11-19T21:45:57.307Z,78.69
2022-11-19T21:48:24.748Z,78.54
2022-11-19T21:50:51.496Z,78.79
2022-11-19T21:53:18.650Z,78.14
2022-11-19T21:55:45.765Z,78.72
2022-11-19T21:58:13.956Z,78.79
2022-11-19T22:00:40.830Z,78.39
2022-11-19T22:03:07.670Z,78.12
2022-11-19T22:05:34.131Z,78.65
2022-11-19T22:08:01.181Z,78.34
2022-11-19T22:10:28.176Z,78.53
2022-11-19T22:12:54.614Z,78.00
2022-11-19T22:15:21.050Z,78.06
2022-11-19T22:17:47.435Z,78.56
2022-11-19T22:20:13.884Z,78.31
2022-11-19T22:22:44.945Z,78.44
2022-11-19T22:25:12.543Z,78.17
2022-11-19T22:27:39.068Z,78.78
2022-11-19T22:30:06.498Z,78.51
2022-11-19T22:32:33.134Z,78.50
2022-11-19T22:34:59.557Z,78.39
2022-11-19T22:37:25.975Z,78.41
2022-11-19T22:39:52.468Z,78.60
2022-11-19T22:42:18.861Z,78.48
2022-11-19T22:44:45.308Z,78.49
2022-11-19T22:47:11.730Z,78.17
2022-11-19T22:49:38.129Z,77.72
2022-11-19T22:52:04.671Z,78.05
2022-11-19T22:54:31.075Z,78.10
2022-11-19T22:56:57.466Z,77.81
2022-11-19T22:59:23.910Z,78.03
2022-11-19T23:01:50.364Z,78.10
2022-11-19T23:04:16.869Z,77.59
2022-11-19T23:06:43.300Z,77.55
2022-11-19T23:09:09.765Z,77.44
2022-11-19T23:11:54.857Z,77.41
2022-11-19T23:14:21.309Z,77.27
2022-11-19T23:16:47.834Z,77.04
2022-11-19T23:19:14.903Z,77.43
2022-11-19T23:21:41.502Z,77.13
2022-11-19T23:24:09.532Z,77.30
2022-11-19T23:26:36.291Z,77.68
2022-11-19T23:29:02.795Z,78.12
2022-11-19T23:31:31.317Z,78.45
2022-11-19T23:33:59.509Z,78.14
2022-11-19T23:36:29.440Z,78.69
2022-11-19T23:38:55.880Z,78.52
2022-11-19T23:41:22.733Z,78.51
2022-11-19T23:43:49.559Z,78.71
2022-11-19T23:46:18.668Z,79.01
2022-11-19T23:48:46.721Z,79.26
2022-11-19T23:51:17.067Z,79.98
2022-11-19T23:53:44.087Z,80.03
2022-11-19T23:56:11.974Z,79.94
2022-11-19T23:58:38.825Z,80.07
